Time;durP1;ratioP1;P1;durP2;ratioP2;P2;SDS_P1;SDS_P2;PMS_P1;PMS_P2;Temp;Humidity;BMP_temperature;BMP_pressure;BME280_temperature;BME280_humidity;BME280_pressure;Samples;Min_cycle;Max_cycle;Signal;HPM_P1;HPM_P2
2022/08/03 00:02:35;;;;;;;1.50;1.40;;;;;;;26.19;40.24;95101.22;6166077;28;103687;-73
2022/08/03 00:05:38;;;;;;;1.67;1.57;;;;;;;26.42;39.79;95093.59;6184263;28;104016;-72
2022/08/03 00:09:03;;;;;;;1.60;1.37;;;;;;;26.63;39.11;95101.59;6162054;28;103175;-72
2022/08/03 00:12:07;;;;;;;1.97;1.40;;;;;;;26.78;38.83;95098.28;6163417;28;104243;-71
2022/08/03 00:15:11;;;;;;;2.37;1.77;;;;;;;26.89;38.91;95089.78;6154571;28;103928;-71
2022/08/03 00:18:18;;;;;;;1.47;1.37;;;;;;;27.02;38.48;95096.72;6185996;28;102928;-72
2022/08/03 00:21:22;;;;;;;1.60;1.20;;;;;;;27.07;38.25;95093.81;6183638;28;103704;-72
2022/08/03 00:24:26;;;;;;;1.43;1.33;;;;;;;27.16;38.58;95094.47;6163375;28;105830;-72
2022/08/03 00:27:29;;;;;;;2.13;1.50;;;;;;;27.17;38.42;95096.81;6179715;28;104033;-72
2022/08/03 00:30:35;;;;;;;1.77;1.67;;;;;;;27.17;38.58;95096.03;6184978;28;103966;-71
2022/08/03 00:33:39;;;;;;;1.50;1.40;;;;;;;27.15;38.24;95098.28;6169351;28;103646;-72
2022/08/03 00:37:04;;;;;;;3.77;1.40;;;;;;;27.12;38.03;95082.84;6155577;28;103586;-72
2022/08/03 00:40:12;;;;;;;1.70;1.60;;;;;;;27.21;38.36;95102.28;6160627;28;104065;-72
2022/08/03 00:43:18;;;;;;;1.50;1.40;;;;;;;27.11;38.16;95082.06;6161017;28;107324;-71
2022/08/03 00:46:21;;;;;;;2.07;1.90;;;;;;;27.21;37.81;95091.53;6163466;28;103590;-72
2022/08/03 00:49:24;;;;;;;1.83;1.73;;;;;;;27.09;38.29;95089.66;6175444;28;103043;-72
2022/08/03 00:52:28;;;;;;;2.53;1.97;;;;;;;26.85;38.33;95087.75;6177579;28;103715;-73
2022/08/03 00:55:33;;;;;;;2.57;2.37;;;;;;;26.82;38.70;95096.47;6162454;28;107213;-71
2022/08/03 00:58:37;;;;;;;3.17;2.20;;;;;;;26.76;38.44;95091.66;6158764;28;103621;-72
2022/08/03 01:01:40;;;;;;;2.83;2.10;;;;;;;26.70;39.03;95093.78;6168317;28;103821;-72
2022/08/03 01:04:43;;;;;;;2.53;2.33;;;;;;;26.69;38.60;95096.78;6161237;28;103686;-72
2022/08/03 01:07:58;;;;;;;2.57;2.37;;;;;;;26.66;39.26;95086.72;6177148;28;103906;-72
2022/08/03 01:11:12;;;;;;;3.47;2.60;;;;;;;26.64;38.81;95088.97;6170781;28;103872;-71
2022/08/03 01:14:21;;;;;;;3.23;2.30;;;;;;;26.72;38.90;95088.09;6171203;28;103758;-71
2022/08/03 01:17:36;;;;;;;3.37;2.83;;;;;;;26.86;38.72;95086.63;6171916;28;104049;-71
2022/08/03 01:20:44;;;;;;;2.90;2.37;;;;;;;27.00;38.67;95082.81;6185263;28;103520;-76
2022/08/03 01:24:02;;;;;;;3.23;2.50;;;;;;;27.10;38.37;95083.16;6167171;28;103719;-69
2022/08/03 01:27:10;;;;;;;3.00;2.70;;;;;;;27.18;38.54;95078.78;6186840;28;103375;-69
2022/08/03 01:30:15;;;;;;;3.80;2.60;;;;;;;27.25;38.51;95076.34;6189071;28;103907;-70
2022/08/03 01:33:22;;;;;;;2.30;2.10;;;;;;;27.27;38.38;95076.81;6174249;28;103634;-68
2022/08/03 01:36:32;;;;;;;2.57;2.37;;;;;;;27.27;38.59;95074.13;6180475;28;104102;-69
2022/08/03 01:39:38;;;;;;;3.07;2.33;;;;;;;27.24;37.80;95072.09;6189034;28;103502;-69
2022/08/03 01:42:44;;;;;;;2.67;2.47;;;;;;;27.20;38.85;95081.13;6187870;28;103981;-69
2022/08/03 01:45:49;;;;;;;2.50;2.30;;;;;;;27.08;38.83;95082.72;6154828;28;105115;-69
2022/08/03 01:48:53;;;;;;;2.50;2.30;;;;;;;26.99;38.64;95083.94;6162839;28;103949;-69
2022/08/03 01:51:58;;;;;;;2.50;2.30;;;;;;;26.91;38.85;95087.53;6164332;28;103929;-70
2022/08/03 01:55:09;;;;;;;2.70;2.50;;;;;;;26.82;38.78;95085.72;6167823;28;103906;-69
2022/08/03 01:58:15;;;;;;;2.60;2.40;;;;;;;26.77;39.02;95085.97;6166801;28;108123;-71
2022/08/03 02:01:21;;;;;;;2.60;2.40;;;;;;;26.73;39.03;95079.69;6173853;28;103944;-71
2022/08/03 02:04:27;;;;;;;2.60;2.40;;;;;;;26.69;39.56;95084.16;6162978;28;103898;-71
2022/08/03 02:07:33;;;;;;;2.83;2.63;;;;;;;26.68;39.48;95085.28;6162186;28;104595;-71
2022/08/03 02:10:37;;;;;;;3.43;2.60;;;;;;;26.77;39.47;95077.91;6171016;28;104550;-71
2022/08/03 02:13:41;;;;;;;5.03;3.20;;;;;;;26.94;39.10;95081.50;6172758;28;104209;-71
2022/08/03 02:16:49;;;;;;;2.50;2.30;;;;;;;27.03;38.65;95080.25;6177039;28;104390;-71
2022/08/03 02:19:53;;;;;;;2.30;2.10;;;;;;;27.01;38.64;95063.69;6176527;28;104422;-71
2022/08/03 02:22:57;;;;;;;3.77;2.20;;;;;;;27.02;38.62;95070.63;6181850;28;103646;-72
2022/08/03 02:26:04;;;;;;;2.30;2.10;;;;;;;27.10;38.82;95079.69;6174207;28;103713;-72
2022/08/03 02:29:13;;;;;;;3.00;1.80;;;;;;;27.14;38.07;95075.22;6182508;28;103807;-71
2022/08/03 02:32:24;;;;;;;2.00;1.90;;;;;;;27.12;37.96;95072.09;6172849;28;103704;-70
2022/08/03 02:35:30;;;;;;;1.97;1.87;;;;;;;27.01;38.42;95076.34;6162844;28;104373;-70
2022/08/03 02:38:36;;;;;;;1.87;1.77;;;;;;;26.90;38.71;95073.34;6173834;28;103800;-72
2022/08/03 02:41:45;;;;;;;1.60;1.50;;;;;;;26.73;38.77;95066.28;6171959;28;103930;-71
2022/08/03 02:44:53;;;;;;;2.10;1.90;;;;;;;26.71;38.66;95079.22;6184617;28;103862;-71
2022/08/03 02:48:02;;;;;;;1.70;1.60;;;;;;;26.55;38.34;95076.41;6187403;28;103421;-70
2022/08/03 02:51:05;;;;;;;1.50;1.40;;;;;;;26.57;38.59;95078.75;6186392;28;104232;-70
2022/08/03 02:54:10;;;;;;;2.87;1.80;;;;;;;26.46;38.99;95064.97;6172485;28;103707;-72
2022/08/03 02:57:15;;;;;;;2.70;2.30;;;;;;;26.47;38.72;95079.19;6187427;28;104018;-72
2022/08/03 03:00:18;;;;;;;2.30;2.10;;;;;;;26.43;39.09;95089.03;6180550;28;106515;-72
2022/08/03 03:03:33;;;;;;;3.53;3.33;;;;;;;26.53;38.92;95091.25;6173030;28;103990;-72
2022/08/03 03:06:48;;;;;;;4.10;3.40;;;;;;;26.63;39.07;95098.91;6182576;28;104144;-70
2022/08/03 03:09:52;;;;;;;2.60;2.40;;;;;;;26.72;38.51;95096.94;6168908;28;107172;-71
2022/08/03 03:12:57;;;;;;;3.57;3.27;;;;;;;26.79;38.64;95096.38;6181409;28;103962;-72
2022/08/03 03:16:03;;;;;;;3.70;3.40;;;;;;;26.85;38.85;95100.38;6162203;28;103864;-72
2022/08/03 03:19:10;;;;;;;3.50;3.13;;;;;;;26.77;38.79;95087.88;6170639;28;103749;-70
2022/08/03 03:22:14;;;;;;;3.37;2.80;;;;;;;26.86;38.71;95102.75;6175334;28;104980;-71
2022/08/03 03:25:20;;;;;;;3.70;3.50;;;;;;;26.86;38.01;95112.69;6164537;28;103636;-72
2022/08/03 03:28:24;;;;;;;4.83;4.43;;;;;;;26.75;38.65;95115.06;6171480;28;104479;-71
2022/08/03 03:31:27;;;;;;;6.33;5.77;;;;;;;26.75;38.81;95120.44;6185852;28;103556;-71
2022/08/03 03:34:32;;;;;;;8.50;7.90;;;;;;;26.62;38.55;95112.66;6166717;28;103778;-72
2022/08/03 03:37:36;;;;;;;15.10;13.80;;;;;;;26.60;39.41;95117.56;6168569;28;104232;-70
2022/08/03 03:40:39;;;;;;;17.17;15.70;;;;;;;26.56;39.31;95117.47;6161000;28;103638;-72
2022/08/03 03:43:43;;;;;;;9.57;8.87;;;;;;;26.42;39.97;95111.59;6164462;28;103783;-70
2022/08/03 03:46:46;;;;;;;16.73;11.50;;;;;;;26.26;40.76;95114.91;6180795;28;103430;-73
2022/08/03 03:49:52;;;;;;;19.27;16.00;;;;;;;25.85;40.69;95120.28;6173037;28;103764;-69
2022/08/03 03:52:55;;;;;;;12.30;11.00;;;;;;;26.11;40.88;95126.25;6182321;28;104743;-68
2022/08/03 03:55:58;;;;;;;9.30;8.40;;;;;;;26.28;40.85;95130.69;6183100;28;103544;-69
2022/08/03 03:59:05;;;;;;;6.63;5.97;;;;;;;26.32;40.56;95117.38;6161743;28;103719;-70
2022/08/03 04:02:09;;;;;;;5.20;4.70;;;;;;;26.35;40.80;95106.75;6154119;28;103888;-70
2022/08/03 04:12:10;;;;;;;2.40;2.30;;;;;;;26.14;40.49;95130.94;6099053;28;103968;-69
2022/08/03 04:15:15;;;;;;;3.90;3.63;;;;;;;26.07;40.09;95129.94;6177605;28;103852;-71
2022/08/03 04:18:21;;;;;;;5.40;2.90;;;;;;;26.13;39.76;95124.03;6178940;28;103572;-70
2022/08/03 04:21:30;;;;;;;3.30;3.10;;;;;;;26.20;39.85;95116.22;6173278;28;103744;-70
2022/08/03 04:24:39;;;;;;;12.93;3.00;;;;;;;24.95;42.15;95121.44;6161068;28;103667;-70
2022/08/03 04:27:43;;;;;;;2.57;2.23;;;;;;;24.41;43.47;95120.34;6172613;28;104768;-71
2022/08/03 04:31:07;;;;;;;2.57;2.17;;;;;;;25.14;41.95;95125.63;6171907;28;103287;-72
2022/08/03 04:34:10;;;;;;;3.53;2.40;;;;;;;25.47;40.97;95123.09;6165834;28;103900;-71
2022/08/03 04:37:21;;;;;;;2.90;2.37;;;;;;;25.69;40.85;95130.81;6181528;28;103845;-70
2022/08/03 04:40:30;;;;;;;10.30;3.50;;;;;;;25.90;40.41;95136.97;6171964;28;103589;-72
2022/08/03 04:43:34;;;;;;;9.37;3.57;;;;;;;25.99;40.63;95134.22;6184159;28;104127;-72
2022/08/03 04:46:39;;;;;;;5.50;3.00;;;;;;;25.99;40.54;95147.63;6176003;28;103848;-71
2022/08/03 04:49:53;;;;;;;14.07;3.70;;;;;;;25.98;40.28;95152.19;6185795;28;103609;-70
2022/08/03 04:52:57;;;;;;;26.57;4.17;;;;;;;26.10;40.78;95151.50;6185081;28;103607;-71
2022/08/03 04:56:04;;;;;;;7.97;2.70;;;;;;;26.25;40.41;95147.44;6184808;28;103595;-70
2022/08/03 04:59:07;;;;;;;9.87;4.03;;;;;;;26.33;40.68;95153.81;6179398;28;103388;-70
2022/08/03 05:02:11;;;;;;;5.03;3.50;;;;;;;26.11;41.16;95155.75;6185482;28;107488;-71
2022/08/03 05:05:14;;;;;;;6.33;3.57;;;;;;;25.85;42.29;95147.88;6185478;28;104657;-72
2022/08/03 05:08:19;;;;;;;6.60;3.53;;;;;;;26.08;41.45;95158.31;6176179;28;103680;-72
2022/08/03 05:11:30;;;;;;;7.33;4.13;;;;;;;26.21;41.86;95158.06;6185051;28;103950;-72
2022/08/03 05:14:35;;;;;;;6.00;4.33;;;;;;;26.36;41.18;95163.91;6184987;28;103870;-71
2022/08/03 05:17:39;;;;;;;10.77;4.13;;;;;;;26.53;41.34;95161.81;6185416;28;103599;-71
2022/08/03 05:20:42;;;;;;;7.43;4.30;;;;;;;26.56;39.71;95168.47;6175892;28;106891;-70
2022/08/03 05:23:47;;;;;;;5.27;4.77;;;;;;;26.47;41.11;95181.94;6184998;28;103593;-71
2022/08/03 05:26:50;;;;;;;8.97;5.60;;;;;;;26.53;40.87;95185.97;6184120;28;103719;-71
2022/08/03 05:29:53;;;;;;;5.80;5.30;;;;;;;26.35;41.47;95183.78;6184401;28;103959;-72
2022/08/03 05:32:56;;;;;;;7.63;4.73;;;;;;;26.08;41.44;95180.56;6177042;28;107495;-72
2022/08/03 05:35:59;;;;;;;4.73;4.37;;;;;;;25.95;41.83;95174.31;6184846;28;103626;-72
2022/08/03 05:39:07;;;;;;;5.87;4.00;;;;;;;25.75;42.05;95179.66;6185031;28;103701;-70
2022/08/03 05:42:10;;;;;;;7.27;4.17;;;;;;;25.90;41.81;95184.47;6175887;28;107023;-72
2022/08/03 05:45:16;;;;;;;6.40;3.97;;;;;;;26.05;41.39;95189.28;6182134;28;103846;-72
2022/08/03 05:48:19;;;;;;;5.07;3.70;;;;;;;26.15;41.10;95180.03;6183554;28;103767;-72
2022/08/03 05:51:22;;;;;;;4.63;4.10;;;;;;;26.23;41.09;95196.06;6182859;28;103837;-72
2022/08/03 05:54:27;;;;;;;4.57;4.00;;;;;;;26.27;41.33;95194.28;6173575;28;103968;-71
2022/08/03 05:57:50;;;;;;;6.17;3.90;;;;;;;26.13;42.09;95192.97;6183652;28;103516;-73
2022/08/03 06:00:57;;;;;;;3.70;3.40;;;;;;;26.35;41.28;95197.22;6182167;28;103790;-70
2022/08/03 06:04:00;;;;;;;4.00;3.70;;;;;;;26.55;41.32;95194.50;6182626;28;103600;-72
2022/08/03 06:07:03;;;;;;;7.83;3.60;;;;;;;26.74;41.11;95191.34;6173703;28;103821;-74
2022/08/03 06:10:09;;;;;;;4.40;3.77;;;;;;;26.81;40.84;95201.53;6182347;28;106734;-74
2022/08/03 06:13:32;;;;;;;3.70;3.30;;;;;;;26.68;41.47;95202.63;6187816;28;103313;-72
2022/08/03 06:16:35;;;;;;;4.33;3.40;;;;;;;26.74;41.03;95201.31;6176820;28;103686;-71
2022/08/03 06:19:38;;;;;;;3.70;3.23;;;;;;;26.37;42.22;95190.41;6187657;28;104933;-69
2022/08/03 06:22:41;;;;;;;3.73;3.27;;;;;;;26.62;41.72;95199.34;6188757;28;106228;-71
2022/08/03 06:25:54;;;;;;;8.13;3.43;;;;;;;26.86;41.52;95195.94;6188018;28;103777;-71
2022/08/03 06:28:57;;;;;;;5.13;3.50;;;;;;;26.36;41.99;95196.09;6177244;28;103718;-69
2022/08/03 06:32:01;;;;;;;4.07;3.67;;;;;;;26.68;41.33;95191.88;6187925;28;103751;-71
2022/08/03 06:35:05;;;;;;;4.33;3.30;;;;;;;26.73;41.22;95189.78;6188088;28;103698;-72
2022/08/03 06:38:09;;;;;;;5.37;3.70;;;;;;;26.69;41.42;95183.50;6184988;28;103697;-70
2022/08/03 06:41:13;;;;;;;4.90;3.50;;;;;;;26.69;40.92;95180.81;6182164;28;104864;-71
2022/08/03 06:44:16;;;;;;;7.63;3.47;;;;;;;26.73;40.99;95171.00;6187397;28;103462;-71
2022/08/03 06:47:20;;;;;;;3.70;3.40;;;;;;;26.82;40.82;95182.41;6188052;28;104531;-71
2022/08/03 06:50:23;;;;;;;4.20;3.80;;;;;;;26.85;40.97;95180.97;6178183;28;104635;-72
2022/08/03 06:53:28;;;;;;;5.67;3.70;;;;;;;26.85;40.97;95179.06;6187345;28;106051;-72
2022/08/03 06:56:32;;;;;;;5.87;3.80;;;;;;;26.79;40.75;95183.06;6188021;28;103524;-72
2022/08/03 06:59:35;;;;;;;4.13;3.53;;;;;;;27.02;41.53;95175.38;6186889;28;105080;-71
2022/08/03 07:02:59;;;;;;;4.43;3.67;;;;;;;26.68;41.87;95176.56;6177501;28;103796;-70
2022/08/03 07:06:02;;;;;;;3.53;3.10;;;;;;;26.50;41.83;95183.97;6186799;28;103960;-72
2022/08/03 07:09:05;;;;;;;3.50;3.20;;;;;;;26.37;41.85;95181.56;6186915;28;103686;-72
2022/08/03 07:12:10;;;;;;;5.20;3.30;;;;;;;26.23;41.36;95190.69;6185950;28;103391;-70
2022/08/03 07:15:15;;;;;;;5.07;3.10;;;;;;;26.18;40.97;95174.00;6181304;28;103727;-71
2022/08/03 07:18:38;;;;;;;5.73;3.10;;;;;;;25.95;40.12;95179.69;6187381;28;103906;-71
2022/08/03 07:21:42;;;;;;;4.57;3.10;;;;;;;25.89;39.55;95172.94;6186530;28;103721;-71
2022/08/03 07:24:46;;;;;;;5.37;3.40;;;;;;;25.79;38.92;95183.25;6176375;28;103621;-71
2022/08/03 07:27:51;;;;;;;4.60;3.40;;;;;;;25.66;38.79;95175.13;6186823;28;103675;-70
2022/08/03 07:30:54;;;;;;;3.90;3.60;;;;;;;25.52;39.05;95182.63;6186387;28;103831;-72
2022/08/03 07:33:57;;;;;;;3.30;3.00;;;;;;;25.41;39.05;95177.97;6187190;28;103946;-71
2022/08/03 07:37:00;;;;;;;3.60;2.97;;;;;;;25.29;38.74;95184.78;6176799;28;103940;-70
2022/08/03 07:40:05;;;;;;;3.80;3.40;;;;;;;25.69;39.25;95185.19;6186039;28;106901;-70
2022/08/03 07:43:09;;;;;;;4.83;3.97;;;;;;;26.12;39.33;95189.50;6183481;28;103436;-70
2022/08/03 07:46:13;;;;;;;6.73;4.20;;;;;;;26.38;39.77;95191.19;6183188;28;104008;-70
2022/08/03 07:49:16;;;;;;;5.20;4.70;;;;;;;26.42;39.53;95173.31;6180832;28;103760;-70
2022/08/03 07:55:41;;;;;;;5.83;5.23;;;;;;;26.57;39.66;95184.22;6186141;28;103440;-69
2022/08/03 07:58:45;;;;;;;8.17;5.30;;;;;;;26.64;40.25;95172.97;6176541;28;103778;-69
2022/08/03 08:01:51;;;;;;;6.23;5.27;;;;;;;26.83;40.14;95178.59;6185905;28;103747;-70
2022/08/03 08:04:54;;;;;;;7.70;5.07;;;;;;;26.96;40.05;95184.00;6186459;28;104561;-69
2022/08/03 08:07:58;;;;;;;5.67;5.17;;;;;;;27.09;40.00;95188.28;6186972;28;106634;-70
2022/08/03 08:11:01;;;;;;;9.10;4.83;;;;;;;27.18;39.21;95186.25;6176453;28;103899;-69
2022/08/03 08:14:08;;;;;;;4.63;4.10;;;;;;;27.24;39.74;95187.63;6185841;28;103596;-68
2022/08/03 08:17:11;;;;;;;5.40;4.90;;;;;;;27.30;39.02;95188.22;6186268;28;104072;-69
2022/08/03 08:20:18;;;;;;;5.30;4.80;;;;;;;27.38;39.45;95190.00;6185191;28;104479;-69
2022/08/03 08:23:30;;;;;;;13.43;5.87;;;;;;;27.42;38.63;95189.00;6181165;28;103620;-68
2022/08/03 08:26:45;;;;;;;5.50;5.00;;;;;;;27.32;38.45;95178.69;6186060;28;103737;-70
2022/08/03 08:29:51;;;;;;;6.33;5.20;;;;;;;27.27;38.80;95180.81;6185626;28;103887;-71
2022/08/03 08:32:57;;;;;;;5.33;4.77;;;;;;;27.28;38.62;95177.81;6176278;28;103684;-69
2022/08/03 08:36:03;;;;;;;5.13;4.73;;;;;;;27.32;38.32;95188.66;6185974;28;103727;-69
2022/08/03 08:39:07;;;;;;;7.47;4.50;;;;;;;27.25;38.16;95178.44;6185804;28;104160;-69
2022/08/03 08:42:10;;;;;;;4.90;4.50;;;;;;;27.19;38.48;95177.09;6186026;28;104116;-69
2022/08/03 08:45:14;;;;;;;4.20;3.80;;;;;;;27.19;38.38;95177.09;6176845;28;103893;-71
2022/08/03 08:48:24;;;;;;;4.67;4.27;;;;;;;27.11;38.32;95172.59;6185571;28;104042;-71
2022/08/03 08:51:30;;;;;;;4.60;4.20;;;;;;;27.15;38.46;95173.50;6185287;28;103826;-70
2022/08/03 08:54:57;;;;;;;5.30;4.83;;;;;;;27.23;38.37;95180.69;6181280;28;104765;-68
2022/08/03 08:58:06;;;;;;;5.53;5.03;;;;;;;27.34;38.88;95171.06;6182317;28;105119;-70
2022/08/03 09:01:10;;;;;;;4.73;4.33;;;;;;;27.30;38.33;95169.41;6185836;28;103643;-70
2022/08/03 09:04:14;;;;;;;4.77;4.27;;;;;;;27.35;38.55;95163.78;6184263;28;103987;-70
2022/08/03 09:07:18;;;;;;;4.10;3.80;;;;;;;27.60;37.91;95169.94;6175504;28;103738;-70
2022/08/03 09:10:22;;;;;;;4.27;3.97;;;;;;;27.66;38.05;95171.28;6184363;28;104319;-68
2022/08/03 09:13:25;;;;;;;4.33;3.93;;;;;;;27.72;38.25;95165.34;6184951;28;103871;-70
2022/08/03 09:16:30;;;;;;;5.23;4.30;;;;;;;27.67;38.31;95167.47;6185569;28;103577;-69
2022/08/03 09:19:34;;;;;;;4.70;4.30;;;;;;;27.93;38.27;95169.81;6174140;28;103675;-69
2022/08/03 09:22:53;;;;;;;4.90;4.50;;;;;;;27.90;37.53;95160.50;6185032;28;103690;-69
2022/08/03 09:26:00;;;;;;;7.33;4.50;;;;;;;27.80;38.08;95160.94;6186051;28;103656;-68
2022/08/03 09:29:05;;;;;;;6.73;3.80;;;;;;;27.65;37.79;95158.94;6177928;28;106759;-70
2022/08/03 09:32:20;;;;;;;4.03;3.63;;;;;;;27.62;38.38;95159.63;6182845;28;103954;-69
2022/08/03 09:35:26;;;;;;;4.93;4.50;;;;;;;27.77;37.34;95150.88;6181489;28;103857;-68
2022/08/03 09:39:02;;;;;;;4.83;3.70;;;;;;;27.65;38.09;95154.34;6183059;28;103879;-68
2022/08/03 09:42:07;;;;;;;4.90;4.33;;;;;;;27.63;38.02;95155.81;6173913;28;106462;-68
2022/08/03 09:45:26;;;;;;;5.43;4.93;;;;;;;27.82;37.91;95158.69;6183495;28;103699;-68
2022/08/03 09:48:33;;;;;;;4.50;4.00;;;;;;;27.87;38.02;95153.09;6187978;28;103817;-69
2022/08/03 09:51:37;;;;;;;5.10;4.20;;;;;;;27.97;37.74;95152.63;6183462;28;103899;-69
2022/08/03 09:55:01;;;;;;;5.03;3.50;;;;;;;28.18;38.24;95154.34;6187715;28;103327;-71
2022/08/03 09:58:08;;;;;;;5.20;4.70;;;;;;;28.11;37.64;95138.81;6187558;28;103629;-70
2022/08/03 10:01:11;;;;;;;4.23;3.93;;;;;;;27.98;37.77;95145.34;6187849;28;103634;-69
2022/08/03 10:04:29;;;;;;;3.60;3.33;;;;;;;27.91;37.23;95148.63;6178820;28;104294;-69
2022/08/03 10:07:42;;;;;;;3.90;3.60;;;;;;;27.92;37.36;95139.44;6187076;28;103648;-69
2022/08/03 10:10:52;;;;;;;4.30;3.90;;;;;;;27.91;37.15;95134.41;6187157;28;104431;-69
2022/08/03 10:13:55;;;;;;;3.93;3.63;;;;;;;27.74;37.16;95109.31;6184535;28;103894;-69
2022/08/03 10:17:03;;;;;;;4.30;4.00;;;;;;;27.92;37.06;95123.28;6182763;28;103885;-70
2022/08/03 10:20:09;;;;;;;4.43;4.13;;;;;;;27.96;36.51;95134.94;6186736;28;103752;-70
2022/08/03 10:23:14;;;;;;;4.60;4.30;;;;;;;27.94;36.54;95123.72;6187851;28;103670;-69
2022/08/03 10:26:22;;;;;;;4.03;3.70;;;;;;;27.79;36.83;95105.59;6177773;28;103686;-69
2022/08/03 10:29:29;;;;;;;4.17;3.80;;;;;;;27.99;36.76;95117.31;6188047;28;103926;-68
2022/08/03 10:32:35;;;;;;;4.17;3.87;;;;;;;27.92;37.29;95119.81;6187698;28;104040;-69
2022/08/03 10:35:42;;;;;;;4.07;3.87;;;;;;;27.89;37.24;95121.28;6187228;28;104119;-68
2022/08/03 10:38:51;;;;;;;4.00;3.77;;;;;;;27.74;37.17;95111.22;6177972;28;103848;-69
2022/08/03 10:41:57;;;;;;;3.57;3.30;;;;;;;27.65;37.23;95108.66;6186661;28;103710;-70
2022/08/03 10:45:05;;;;;;;6.23;3.67;;;;;;;27.60;36.79;95116.19;6180494;28;103762;-70
2022/08/03 10:48:09;;;;;;;5.20;3.00;;;;;;;27.52;37.63;95117.06;6172373;28;105124;-69
2022/08/03 10:51:14;;;;;;;3.80;3.50;;;;;;;27.52;37.67;95112.47;6165697;28;104254;-69
2022/08/03 10:57:33;;;;;;;4.80;3.80;;;;;;;27.51;37.33;95102.06;6162105;28;103771;-68
2022/08/03 10:58:08;;;;;;;4.80;4.40;;;;;;;27.72;36.66;95106.19;6161653;28;103942;-69
2022/08/03 11:01:13;;;;;;;5.70;5.30;;;;;;;27.81;36.80;95100.66;6152943;28;103868;-69
2022/08/03 11:04:18;;;;;;;5.50;5.10;;;;;;;27.90;36.62;95101.34;6168096;28;103945;-68
2022/08/03 11:07:25;;;;;;;5.07;4.67;;;;;;;27.99;36.81;95098.50;6161899;28;103828;-68
2022/08/03 11:10:31;;;;;;;5.63;5.23;;;;;;;28.02;36.96;95087.81;6160470;28;106003;-69
2022/08/03 11:13:34;;;;;;;6.30;5.70;;;;;;;28.04;36.59;95101.72;6154261;28;106674;-70
2022/08/03 11:16:39;;;;;;;5.97;5.53;;;;;;;28.07;36.68;95097.56;6162222;28;104951;-71
2022/08/03 11:19:47;;;;;;;5.23;4.93;;;;;;;28.00;36.63;95090.06;6161670;28;103754;-70
2022/08/03 11:23:01;;;;;;;6.40;6.00;;;;;;;27.98;36.62;95091.53;6152448;28;104356;-69
2022/08/03 11:26:12;;;;;;;5.70;5.17;;;;;;;27.89;36.87;95094.41;6161175;28;103640;-69
2022/08/03 11:29:27;;;;;;;5.17;4.87;;;;;;;27.86;37.20;95076.22;6161556;28;103690;-69
2022/08/03 11:33:00;;;;;;;5.37;5.00;;;;;;;27.89;37.45;95083.63;6161731;28;103629;-69
2022/08/03 11:36:03;;;;;;;4.50;4.20;;;;;;;27.98;37.11;95080.78;6152089;28;103735;-69
2022/08/03 11:39:14;;;;;;;3.80;3.50;;;;;;;28.04;36.97;95069.41;6161136;28;103782;-69
2022/08/03 11:42:46;;;;;;;3.70;2.80;;;;;;;28.07;36.80;95064.50;6159825;28;104005;-69
2022/08/03 11:45:58;;;;;;;3.20;3.00;;;;;;;27.90;36.79;95070.97;6151884;28;103869;-69
2022/08/03 11:49:06;;;;;;;3.67;3.47;;;;;;;27.74;37.42;95068.19;6161483;28;103583;-69
2022/08/03 11:52:13;;;;;;;5.27;4.87;;;;;;;27.67;37.84;95070.66;6161773;28;103950;-69
2022/08/03 11:55:20;;;;;;;6.17;5.73;;;;;;;27.63;37.33;95067.09;6161107;28;103767;-69
2022/08/03 11:58:24;;;;;;;5.80;5.40;;;;;;;27.90;38.19;95068.28;6151904;28;103908;-70
2022/08/03 12:01:47;;;;;;;6.37;5.73;;;;;;;28.03;37.76;95062.47;6160193;28;103726;-69
2022/08/03 12:04:51;;;;;;;5.83;5.30;;;;;;;28.23;37.49;95063.41;6162142;28;104243;-69
2022/08/03 12:07:54;;;;;;;5.90;5.40;;;;;;;28.31;37.37;95073.22;6156452;28;103966;-69
2022/08/03 12:11:11;;;;;;;4.80;4.40;;;;;;;28.40;37.50;95065.00;6159181;28;103675;-69
2022/08/03 12:14:17;;;;;;;3.80;3.60;;;;;;;28.59;37.36;95062.44;6160329;28;103959;-69
2022/08/03 12:17:41;;;;;;;5.80;5.20;;;;;;;28.65;36.75;95066.41;6160778;28;103501;-69
2022/08/03 12:20:45;;;;;;;4.83;4.30;;;;;;;28.64;36.96;95067.56;6150385;28;105039;-71
2022/08/03 12:23:48;;;;;;;4.70;4.40;;;;;;;28.55;36.83;95061.53;6160907;28;106355;-70
2022/08/03 12:26:52;;;;;;;5.50;5.10;;;;;;;28.47;37.23;95057.13;6161018;28;106485;-69
2022/08/03 12:30:02;;;;;;;5.27;4.80;;;;;;;28.54;37.26;95051.91;6160624;28;104731;-68
2022/08/03 12:33:16;;;;;;;4.37;4.07;;;;;;;28.62;36.83;95059.03;6152676;28;104252;-68
2022/08/03 12:36:20;;;;;;;4.57;4.17;;;;;;;28.74;36.91;95057.41;6160797;28;103752;-70
2022/08/03 12:39:26;;;;;;;3.97;3.70;;;;;;;28.71;36.07;95047.28;6160015;28;103835;-71
2022/08/03 12:42:32;;;;;;;3.70;3.40;;;;;;;28.77;36.61;95043.22;6152282;28;103811;-70
2022/08/03 12:45:37;;;;;;;3.63;3.43;;;;;;;28.79;36.00;95044.44;6160105;28;104102;-70
2022/08/03 12:48:59;;;;;;;5.33;4.20;;;;;;;28.58;35.99;95043.94;6160143;28;103791;-70
2022/08/03 12:52:03;;;;;;;4.37;4.07;;;;;;;28.58;36.16;95052.78;6160254;28;103651;-69
2022/08/03 12:55:20;;;;;;;4.40;4.10;;;;;;;28.49;36.12;95052.16;6150325;28;103700;-69
2022/08/03 12:58:33;;;;;;;3.80;3.57;;;;;;;28.46;36.68;95042.09;6160204;28;103797;-69
2022/08/03 13:01:37;;;;;;;4.33;4.03;;;;;;;28.31;36.77;95037.44;6160037;28;103522;-69
2022/08/03 13:04:58;;;;;;;5.17;3.97;;;;;;;28.17;37.02;95035.16;6151048;28;103464;-68
2022/08/03 13:08:02;;;;;;;4.37;4.07;;;;;;;28.08;36.68;95037.25;6159626;28;103994;-70
2022/08/03 13:11:19;;;;;;;4.20;3.90;;;;;;;27.97;37.12;95031.56;6159138;28;102846;-69
2022/08/03 13:14:23;;;;;;;4.93;4.53;;;;;;;28.00;37.16;95038.94;6159615;28;103721;-69
2022/08/03 13:17:28;;;;;;;3.93;3.63;;;;;;;28.18;36.88;95039.41;6149667;28;104340;-69
2022/08/03 13:20:32;;;;;;;3.63;3.43;;;;;;;28.31;37.24;95046.31;6159891;28;104044;-70
2022/08/03 13:23:35;;;;;;;3.43;3.00;;;;;;;28.23;37.60;95049.94;6159165;28;103347;-70
2022/08/03 13:26:38;;;;;;;7.37;3.17;;;;;;;28.11;38.64;95052.69;6159770;28;104009;-70
2022/08/03 13:29:43;;;;;;;6.53;3.17;;;;;;;28.08;38.86;95058.00;6150288;28;104364;-69
2022/08/03 13:32:46;;;;;;;6.73;3.40;;;;;;;27.93;39.47;95062.22;6159401;28;103833;-69
2022/08/03 13:35:49;;;;;;;5.90;3.27;;;;;;;27.99;38.50;95056.22;6159669;28;103270;-70
2022/08/03 13:38:53;;;;;;;4.00;3.43;;;;;;;28.10;38.50;95055.75;6153858;28;103965;-70
2022/08/03 13:41:57;;;;;;;4.23;3.00;;;;;;;27.99;39.10;95040.09;6157765;28;103680;-69
2022/08/03 13:45:02;;;;;;;3.93;2.50;;;;;;;28.01;39.00;95040.53;6159498;28;103943;-70
2022/08/03 13:48:06;;;;;;;4.23;3.37;;;;;;;27.79;39.04;95024.91;6157988;28;103822;-70
2022/08/03 13:51:09;;;;;;;4.17;3.10;;;;;;;27.87;39.11;95044.72;6149313;28;104956;-70
2022/08/03 13:54:24;;;;;;;4.17;2.90;;;;;;;27.82;38.63;95044.94;6159109;28;103735;-69
2022/08/03 13:57:28;;;;;;;3.13;2.90;;;;;;;27.77;38.71;95030.63;6159310;28;103649;-70
2022/08/03 14:00:52;;;;;;;3.70;2.97;;;;;;;27.84;37.93;95037.31;6158553;28;104639;-69
2022/08/03 14:03:57;;;;;;;3.10;2.90;;;;;;;27.88;37.95;95047.06;6152428;28;103814;-69
2022/08/03 14:07:00;;;;;;;3.83;3.53;;;;;;;27.86;38.70;95041.25;6159000;28;104142;-70
2022/08/03 14:10:06;;;;;;;3.47;3.17;;;;;;;27.85;38.37;95045.03;6159365;28;104849;-70
2022/08/03 14:13:11;;;;;;;5.70;3.37;;;;;;;27.92;37.87;95049.88;6152118;28;103494;-69
2022/08/03 14:16:15;;;;;;;3.90;3.47;;;;;;;28.02;37.69;95049.38;6157850;28;103914;-69
2022/08/03 14:19:18;;;;;;;3.20;3.00;;;;;;;28.08;38.29;95045.31;6158685;28;103493;-69
2022/08/03 14:22:27;;;;;;;3.37;3.07;;;;;;;28.21;37.59;95052.19;6157393;28;103046;-69
2022/08/03 14:25:30;;;;;;;3.47;3.27;;;;;;;28.28;37.29;95046.22;6151161;28;104459;-71
2022/08/03 14:28:45;;;;;;;3.60;3.40;;;;;;;28.36;37.30;95039.88;6158672;28;103732;-70
2022/08/03 14:31:50;;;;;;;4.27;3.10;;;;;;;28.41;37.80;95039.63;6159606;28;107829;-69
2022/08/03 14:35:13;;;;;;;3.70;3.40;;;;;;;28.39;37.67;95044.56;6159220;28;104076;-70
2022/08/03 14:38:17;;;;;;;3.80;3.40;;;;;;;28.49;37.69;95036.00;6158160;28;104898;-67
2022/08/03 14:41:20;;;;;;;4.03;3.73;;;;;;;28.47;37.14;95032.88;6163858;28;105162;-71